KFVX

Farmville Regional Airport

Farmville, Virginia, USA
METAR KFVX 141315Z AUTO 27003KT 10SM CLR 20/18 A3001 RMK AO2 T02040183
Observed Flight Rules
Aug-14 @ 13:15 UTC (26 minutes ago) Visual Flight Rules
Wind Visibility Clouds
270° at 3 knots 10 miles
  • Clear skies
Temperatures Readings
Current 20°C / 68°F
Dewpoint 18°C / 64°F
Humidity 88%
Altimeter 30.01" Hg
Pressure 1016 hPa
Elevation 125
METAR KFVX 141315Z AUTO 27003KT 10SM CLR 20/18 A3001 RMK AO2 T02040183
Observed Flight Rules
Aug-14 @ 13:15 UTC
(26 minutes ago)
VFR
Wind Visibility
270° at 3 knots 10 miles
Clouds
  • Clear skies
Temperature Dewpoint
20°C / 68°F 18°C / 64°F
Humidity Altimeter Pressure
88% 30.01" Hg 1016 hPa